»·PEaware :: ASA2678 KSFO-KRNO

ASA2678 :: KSFO-KRNO

FLIGHT INFORMATION

Flight Status: Arrived
Operator:
Alaska Airlines
More flights by this operator :: More flights under this callsign
Pilot: Kyle M. (9350)
Aircraft: AIRBUS A319
(A319)
More flights by this aircraft type
Origin: KSFO San Francisco Intl
United States
Destination: KRNO Reno/Tahoe Intl
United States
More flights between these airports :: More routes between these airports
Route: +TRUKN2 ORRCA TARVR SPOON
File this flight plan on PilotEdge
Remarks: RMK / SIMBRIEF CptCanada on YT!
Altitude:
(Current/Filed)
25,000ft
Speed:
(Current/Filed)
455kts
Departed: 03-Feb-20 11:04 PM
Arrived: 03-Feb-20 11:40 PM
Distance/Time
Traveled:
167nm/0:35
Distance/Time
To Go:
Arrived

Flight Plot

Page will automatically refresh every two minutes.

Flight plan parsing failed; only flown route is shown


Map Options




Map Legend


Flown Route
Filed Route
Departure Airport
Arrival Airport
Navaid (VOR, NDB)
Fix

Horizontal Profiles

Position Reports

Time Latitude Longitude Heading Altitude Ground
Speed
03-Feb-20 22:48 37.616764 -122.381702 22 22ft 0kts
03-Feb-20 22:49 37.616764 -122.381702 22 22ft 0kts
03-Feb-20 22:50 37.616764 -122.381702 22 22ft 0kts
03-Feb-20 22:51 37.616764 -122.381702 22 22ft 0kts
03-Feb-20 22:52 37.616764 -122.381702 22 22ft 0kts
03-Feb-20 22:53 37.616764 -122.381702 22 22ft 0kts
03-Feb-20 22:54 37.616764 -122.381702 22 22ft 0kts
03-Feb-20 22:55 37.616763 -122.381702 22 22ft 0kts
03-Feb-20 22:56 37.616385 -122.381896 22 22ft 2kts
03-Feb-20 22:57 37.616183 -122.382247 85 22ft 0kts
03-Feb-20 22:58 37.616183 -122.382246 85 22ft 0kts
03-Feb-20 22:59 37.615605 -122.380555 152 22ft 9kts
03-Feb-20 23:00 37.612360 -122.382438 207 22ft 16kts
03-Feb-20 23:01 37.607934 -122.384956 179 22ft 18kts
03-Feb-20 23:02 37.606553 -122.382480 26 22ft 12kts
03-Feb-20 23:03 37.612116 -122.377213 28 22ft 108kts
03-Feb-20 23:04 37.645674 -122.343241 51 2217ft 173kts
03-Feb-20 23:05 37.678498 -122.287463 48 4366ft 241kts
03-Feb-20 23:06 37.719514 -122.216332 44 7974ft 258kts
03-Feb-20 23:07 37.777309 -122.161072 32 10983ft 281kts
03-Feb-20 23:08 37.849457 -122.095771 31 12592ft 348kts
03-Feb-20 23:09 37.929398 -122.023150 29 15554ft 360kts
03-Feb-20 23:10 38.011764 -121.948236 28 18090ft 371kts
03-Feb-20 23:11 38.093059 -121.864147 49 20289ft 405kts
03-Feb-20 23:12 38.139589 -121.733455 54 23020ft 405kts
03-Feb-20 23:13 38.186531 -121.601622 54 24768ft 415kts
03-Feb-20 23:14 38.234221 -121.466889 55 25237ft 420kts
03-Feb-20 23:15 38.282185 -121.330638 56 25233ft 420kts
03-Feb-20 23:16 38.329533 -121.195021 56 25239ft 421kts
03-Feb-20 23:17 38.377052 -121.058718 57 25220ft 422kts
03-Feb-20 23:18 38.424613 -120.921674 57 25189ft 423kts
03-Feb-20 23:19 38.472150 -120.784263 57 25178ft 425kts
03-Feb-20 23:20 38.519793 -120.645862 58 25178ft 426kts
03-Feb-20 23:21 38.567341 -120.507067 58 25174ft 426kts
03-Feb-20 23:22 38.614390 -120.369039 58 24389ft 421kts
03-Feb-20 23:23 38.660641 -120.232135 59 22816ft 411kts
03-Feb-20 23:24 38.704897 -120.100830 59 20750ft 395kts
03-Feb-20 23:25 38.747561 -119.973944 59 18722ft 379kts
03-Feb-20 23:26 38.788371 -119.851992 59 16714ft 365kts
03-Feb-20 23:27 38.855857 -119.772448 5 14459ft 341kts
03-Feb-20 23:28 38.949616 -119.771545 1 12208ft 331kts
03-Feb-20 23:29 39.040315 -119.771175 1 10502ft 315kts
03-Feb-20 23:30 39.117974 -119.770621 1 10483ft 248kts
03-Feb-20 23:31 39.179056 -119.770332 2 10484ft 197kts
03-Feb-20 23:32 39.233896 -119.770091 2 9999ft 179kts
03-Feb-20 23:33 39.281605 -119.769916 2 9068ft 172kts
03-Feb-20 23:34 39.330615 -119.769733 2 7968ft 177kts
03-Feb-20 23:35 39.377318 -119.769598 359 6862ft 148kts
03-Feb-20 23:36 39.417954 -119.769475 359 5972ft 144kts
03-Feb-20 23:37 39.457912 -119.769365 359 5090ft 143kts
03-Feb-20 23:38 39.495561 -119.769272 359 4424ft 80kts
03-Feb-20 23:39 39.503833 -119.771262 303 4424ft 10kts
03-Feb-20 23:40 39.506724 -119.771480 0 4424ft 11kts
03-Feb-20 23:41 39.507697 -119.773339 197 4424ft 7kts

Navigation Log

Ident Type
Flight plan parsing failed, navigation log unavailable